createdAt,value
2019-01-15T00:02:20.978Z,98349.46
2019-01-15T00:04:52.218Z,98348.90
2019-01-15T00:07:23.563Z,98354.97
2019-01-15T00:09:54.910Z,98353.34
2019-01-15T00:12:26.151Z,98350.70
2019-01-15T00:14:57.621Z,98356.56
2019-01-15T00:17:28.864Z,98360.62
2019-01-15T00:20:00.301Z,98360.83
2019-01-15T00:22:31.608Z,98359.91
2019-01-15T00:25:02.894Z,98359.69
2019-01-15T00:27:34.141Z,98371.34
2019-01-15T00:30:07.563Z,98380.51
2019-01-15T00:32:38.821Z,98373.72
2019-01-15T00:35:10.250Z,98373.67
2019-01-15T00:37:41.514Z,98378.32
2019-01-15T00:40:15.501Z,98379.41
2019-01-15T00:42:46.748Z,98384.45
2019-01-15T00:45:18.000Z,98388.99
2019-01-15T00:47:49.295Z,98391.78
2019-01-15T00:50:20.578Z,98402.99
2019-01-15T00:52:51.851Z,98398.18
2019-01-15T00:55:23.111Z,98402.50
2019-01-15T00:57:54.456Z,98407.05
2019-01-15T01:00:26.731Z,98403.20
2019-01-15T01:02:57.998Z,98407.03
2019-01-15T01:05:29.241Z,98412.55
2019-01-15T01:08:00.727Z,98413.77
2019-01-15T01:10:31.966Z,98413.95
2019-01-15T01:13:03.739Z,98414.41
2019-01-15T01:15:35.166Z,98412.55
2019-01-15T01:18:06.484Z,98413.86
2019-01-15T01:20:37.717Z,98410.09
2019-01-15T01:23:08.987Z,98417.71
2019-01-15T01:25:40.212Z,98421.36
2019-01-15T01:28:11.460Z,98422.23
2019-01-15T01:30:42.781Z,98419.41
2019-01-15T01:33:14.240Z,98408.69
2019-01-15T01:35:45.476Z,98414.38
2019-01-15T01:38:16.739Z,98417.17
2019-01-15T01:40:48.150Z,98414.40
2019-01-15T01:43:19.457Z,98412.32
2019-01-15T01:45:50.765Z,98417.28
2019-01-15T01:48:22.272Z,98418.13
2019-01-15T01:50:53.498Z,98420.52
2019-01-15T01:53:24.836Z,98421.77
2019-01-15T01:55:56.164Z,98419.14
2019-01-15T01:58:27.429Z,98412.69
2019-01-15T02:00:58.779Z,98429.50
2019-01-15T02:03:30.954Z,98428.25
2019-01-15T02:06:02.275Z,98432.58
2019-01-15T02:08:33.550Z,98437.90
2019-01-15T02:11:04.810Z,98425.40
2019-01-15T02:13:36.114Z,98431.59
2019-01-15T02:16:07.550Z,98428.80
2019-01-15T02:18:38.820Z,98422.67
2019-01-15T02:21:10.247Z,98427.55
2019-01-15T02:23:41.532Z,98427.48
2019-01-15T02:26:12.780Z,98440.07
2019-01-15T02:28:45.732Z,98439.59
2019-01-15T02:31:16.975Z,98439.20
2019-01-15T02:33:48.268Z,98434.33
2019-01-15T02:36:19.521Z,98427.30
2019-01-15T02:38:50.839Z,98421.97
2019-01-15T02:41:22.073Z,98405.75
2019-01-15T02:43:53.522Z,98408.09
2019-01-15T02:46:24.857Z,98413.78
2019-01-15T02:48:57.737Z,98413.73
2019-01-15T02:51:29.205Z,98418.08
2019-01-15T02:54:00.492Z,98413.81
2019-01-15T02:56:31.821Z,98412.81
2019-01-15T02:59:03.252Z,98418.66
2019-01-15T03:01:34.604Z,98426.97
2019-01-15T03:04:05.866Z,98426.66
2019-01-15T03:06:37.116Z,98435.69
2019-01-15T03:09:09.220Z,98435.73
2019-01-15T03:11:40.475Z,98427.84
2019-01-15T03:14:11.716Z,98429.66
2019-01-15T03:16:43.019Z,98427.62
2019-01-15T03:19:14.350Z,98421.55
2019-01-15T03:21:45.643Z,98429.26
2019-01-15T03:24:16.963Z,98414.27
2019-01-15T03:26:48.219Z,98426.52
2019-01-15T03:29:19.565Z,98418.12
2019-01-15T03:31:51.058Z,98428.27
2019-01-15T03:34:22.295Z,98410.02
2019-01-15T03:36:53.515Z,98408.63
2019-01-15T03:39:24.747Z,98410.55
2019-01-15T03:41:56.298Z,98405.20
2019-01-15T03:44:27.536Z,98409.25
2019-01-15T03:46:58.873Z,98409.05
2019-01-15T03:49:30.137Z,98404.56
2019-01-15T03:52:01.394Z,98405.98
2019-01-15T03:54:32.631Z,98417.09
2019-01-15T03:57:03.994Z,98409.22
2019-01-15T03:59:35.282Z,98417.39
2019-01-15T04:02:06.610Z,98416.41
2019-01-15T04:04:39.158Z,98427.65
2019-01-15T04:07:10.839Z,98411.26
2019-01-15T04:09:42.335Z,98413.50
2019-01-15T04:12:14.437Z,98416.13
2019-01-15T04:14:45.849Z,98427.58
2019-01-15T04:17:17.103Z,98425.86
2019-01-15T04:19:48.323Z,98428.49
2019-01-15T04:22:19.627Z,98435.48
2019-01-15T04:24:50.936Z,98441.64
2019-01-15T04:27:22.223Z,98449.33
2019-01-15T04:29:54.473Z,98443.86
2019-01-15T04:32:25.781Z,98455.42
2019-01-15T04:34:57.106Z,98441.13
2019-01-15T04:37:28.589Z,98445.28
2019-01-15T04:39:59.837Z,98453.19
2019-01-15T04:42:31.085Z,98447.19
2019-01-15T04:45:02.402Z,98460.08
2019-01-15T04:47:33.831Z,98459.66
2019-01-15T04:50:07.155Z,98464.21
2019-01-15T04:52:39.455Z,98460.63
2019-01-15T04:55:11.079Z,98464.50
2019-01-15T04:57:42.412Z,98481.98
2019-01-15T05:00:16.104Z,98476.74
2019-01-15T05:02:47.820Z,98482.09
2019-01-15T05:05:21.587Z,98486.53
2019-01-15T05:07:52.859Z,98480.02
2019-01-15T05:10:24.199Z,98483.90
2019-01-15T05:12:55.520Z,98489.55
2019-01-15T05:15:26.889Z,98487.03
2019-01-15T05:17:58.237Z,98481.80
2019-01-15T05:20:29.583Z,98491.94
2019-01-15T05:23:00.922Z,98510.44
2019-01-15T05:25:32.281Z,98508.19
2019-01-15T05:28:03.628Z,98510.33
2019-01-15T05:30:34.989Z,98509.41
2019-01-15T05:33:06.408Z,98517.12
2019-01-15T05:35:37.728Z,98530.31
2019-01-15T05:38:09.138Z,98519.44
2019-01-15T05:40:41.960Z,98520.14
2019-01-15T05:43:13.243Z,98525.02
2019-01-15T05:45:47.653Z,98528.50
2019-01-15T05:48:25.982Z,98541.84
2019-01-15T05:51:19.282Z,98550.06
2019-01-15T05:53:50.661Z,98554.86
2019-01-15T05:56:21.946Z,98563.23
2019-01-15T05:58:53.306Z,98564.83
2019-01-15T06:01:24.927Z,98567.88
2019-01-15T06:03:56.312Z,98565.64
2019-01-15T06:06:27.566Z,98569.77
2019-01-15T06:08:58.903Z,98570.03
2019-01-15T06:11:30.127Z,98573.94
2019-01-15T06:14:01.390Z,98581.41
2019-01-15T06:16:34.483Z,98577.66
2019-01-15T06:19:05.769Z,98579.80
2019-01-15T06:21:37.067Z,98579.69
2019-01-15T06:24:08.438Z,98590.53
2019-01-15T06:26:39.782Z,98595.52
2019-01-15T06:29:11.388Z,98592.13
2019-01-15T06:31:42.703Z,98597.98
2019-01-15T06:34:14.056Z,98606.60
2019-01-15T06:36:45.449Z,98603.44
2019-01-15T06:39:16.716Z,98611.05
2019-01-15T06:41:48.067Z,98620.78
2019-01-15T06:44:19.315Z,98629.67
2019-01-15T06:46:50.680Z,98625.30
2019-01-15T06:49:22.039Z,98637.57
2019-01-15T06:51:53.403Z,98644.77
2019-01-15T06:54:24.658Z,98652.84
2019-01-15T06:56:55.958Z,98656.03
2019-01-15T06:59:27.329Z,98656.67
2019-01-15T07:01:58.675Z,98669.36
2019-01-15T07:04:30.011Z,98668.36
2019-01-15T07:07:02.179Z,98685.93
2019-01-15T07:09:33.558Z,98686.02
2019-01-15T07:12:04.907Z,98695.46
2019-01-15T07:14:36.299Z,98701.45
2019-01-15T07:17:07.870Z,98705.35
2019-01-15T07:19:39.222Z,98699.41
2019-01-15T07:22:10.591Z,98715.78
2019-01-15T07:24:41.922Z,98719.66
2019-01-15T07:27:13.229Z,98717.59
2019-01-15T07:29:44.514Z,98720.20
2019-01-15T07:32:15.760Z,98729.00
2019-01-15T07:34:47.007Z,98731.24
2019-01-15T07:37:18.248Z,98723.50
2019-01-15T07:39:49.607Z,98728.09
2019-01-15T07:42:20.953Z,98725.42
2019-01-15T07:44:52.303Z,98724.81
2019-01-15T07:47:23.536Z,98731.59
2019-01-15T07:49:54.887Z,98732.20
2019-01-15T07:52:26.156Z,98745.55
2019-01-15T07:54:57.502Z,98749.74
2019-01-15T07:57:31.123Z,98760.12
2019-01-15T08:00:02.478Z,98763.39
2019-01-15T08:02:33.711Z,98770.98
2019-01-15T08:05:05.492Z,98783.78
2019-01-15T08:07:36.934Z,98787.72
2019-01-15T08:10:10.047Z,98792.73
2019-01-15T08:12:41.340Z,98804.08
2019-01-15T08:15:15.359Z,98794.86
2019-01-15T08:17:46.604Z,98793.60
2019-01-15T08:20:17.858Z,98799.47
2019-01-15T08:22:49.187Z,98798.64
2019-01-15T08:25:20.419Z,98804.96
2019-01-15T08:27:51.757Z,98808.30
2019-01-15T08:30:25.413Z,98807.70
2019-01-15T08:32:56.849Z,98810.12
2019-01-15T08:35:28.125Z,98808.14
2019-01-15T08:37:59.542Z,98804.67
2019-01-15T08:40:30.836Z,98808.62
2019-01-15T08:43:02.071Z,98813.91
2019-01-15T08:45:33.455Z,98810.16
2019-01-15T08:48:16.298Z,98811.55
2019-01-15T08:50:49.531Z,98813.34
2019-01-15T08:53:23.278Z,98804.61
2019-01-15T08:55:58.401Z,98808.91
2019-01-15T08:58:29.701Z,98812.20
2019-01-15T09:01:01.077Z,98803.89
2019-01-15T09:03:33.916Z,98811.48
2019-01-15T09:06:05.185Z,98817.12
2019-01-15T09:08:36.527Z,98814.66
2019-01-15T09:11:07.900Z,98819.50
2019-01-15T09:13:39.289Z,98819.61
2019-01-15T09:16:10.560Z,98804.72
2019-01-15T09:18:41.806Z,98823.07
2019-01-15T09:21:13.089Z,98821.47
2019-01-15T09:23:44.408Z,98819.33
2019-01-15T09:26:15.800Z,98811.16
2019-01-15T09:28:47.187Z,98815.48
2019-01-15T09:31:18.467Z,98811.52
2019-01-15T09:33:49.825Z,98814.34
2019-01-15T09:36:21.218Z,98818.00
2019-01-15T09:38:54.178Z,98817.02
2019-01-15T09:41:25.513Z,98814.27
2019-01-15T09:43:56.997Z,98804.00
2019-01-15T09:46:28.264Z,98805.36
2019-01-15T09:48:59.559Z,98807.00
2019-01-15T09:51:30.949Z,98809.92
2019-01-15T09:54:02.222Z,98796.13
2019-01-15T09:56:33.656Z,98806.61
2019-01-15T09:59:05.756Z,98801.58
2019-01-15T10:01:37.132Z,98807.45
2019-01-15T10:04:10.099Z,98805.72
2019-01-15T10:06:41.319Z,98809.45
2019-01-15T10:09:12.579Z,98819.72
2019-01-15T10:11:43.934Z,98813.73
2019-01-15T10:14:15.303Z,98823.62
2019-01-15T10:16:46.561Z,98823.56
2019-01-15T10:19:17.990Z,98815.12
2019-01-15T10:21:50.579Z,98815.00
2019-01-15T10:24:21.931Z,98822.27
2019-01-15T10:26:54.448Z,98812.16
2019-01-15T10:29:27.197Z,98818.28
2019-01-15T10:32:36.663Z,98802.20
2019-01-15T10:35:23.358Z,98811.11
2019-01-15T10:37:54.703Z,98802.66
2019-01-15T10:40:26.106Z,98811.06
2019-01-15T10:42:59.049Z,98803.48
2019-01-15T10:45:32.648Z,98808.96
2019-01-15T10:48:04.025Z,98798.88
2019-01-15T10:50:35.269Z,98789.97
2019-01-15T10:53:06.658Z,98792.05
2019-01-15T10:55:37.989Z,98796.11
2019-01-15T10:58:09.401Z,98785.36
2019-01-15T11:00:40.640Z,98779.91
2019-01-15T11:03:12.846Z,98782.09
2019-01-15T11:05:44.367Z,98778.48
2019-01-15T11:08:15.710Z,98764.02
2019-01-15T11:10:48.849Z,98754.00
2019-01-15T11:13:20.214Z,98751.47
2019-01-15T11:15:51.460Z,98747.12
2019-01-15T11:18:22.816Z,98731.00
2019-01-15T11:20:54.611Z,98739.62
2019-01-15T11:23:25.932Z,98728.70
2019-01-15T11:25:57.431Z,98726.88
2019-01-15T11:28:28.706Z,98728.39
2019-01-15T11:31:00.113Z,98726.88
2019-01-15T11:33:33.041Z,98721.27
2019-01-15T11:36:04.583Z,98724.54
2019-01-15T11:38:35.981Z,98727.78
2019-01-15T11:41:07.405Z,98726.86
2019-01-15T11:43:39.050Z,98726.16
2019-01-15T11:46:10.373Z,98717.36
2019-01-15T11:48:41.610Z,98709.84
2019-01-15T11:51:12.899Z,98714.31
2019-01-15T11:53:44.126Z,98705.37
2019-01-15T11:56:15.380Z,98709.55
2019-01-15T11:58:47.281Z,98706.37
2019-01-15T12:01:37.852Z,98707.31
2019-01-15T12:04:27.160Z,98721.93
2019-01-15T12:07:36.694Z,98700.09
2019-01-15T12:10:32.443Z,98701.02
2019-01-15T12:13:32.255Z,98682.83
2019-01-15T12:16:18.957Z,98681.41
2019-01-15T12:19:15.415Z,98680.19
2019-01-15T12:22:04.598Z,98681.52
2019-01-15T12:25:07.258Z,98683.53
2019-01-15T12:27:56.323Z,98685.88
2019-01-15T12:30:48.658Z,98682.80
2019-01-15T12:33:37.789Z,98682.91
2019-01-15T12:36:43.368Z,98671.02
2019-01-15T12:39:32.196Z,98682.40
2019-01-15T12:42:35.969Z,98667.46
2019-01-15T12:45:35.354Z,98673.75
2019-01-15T12:48:34.750Z,98667.14
2019-01-15T12:51:34.286Z,98669.34
2019-01-15T12:54:28.270Z,98666.33
2019-01-15T12:57:22.324Z,98658.41
2019-01-15T13:00:29.814Z,98662.37
2019-01-15T13:03:18.948Z,98644.15
2019-01-15T13:06:08.177Z,98652.08
2019-01-15T13:08:58.435Z,98655.94
2019-01-15T13:11:54.897Z,98643.42
2019-01-15T13:14:58.577Z,98643.74
2019-01-15T13:17:46.960Z,98645.56
2019-01-15T13:20:36.227Z,98645.15
2019-01-15T13:23:35.725Z,98644.55
2019-01-15T13:26:26.019Z,98636.22
2019-01-15T13:29:34.710Z,98635.23
2019-01-15T13:32:33.640Z,98642.58
2019-01-15T13:35:22.816Z,98644.59
2019-01-15T13:38:03.978Z,98637.53
2019-01-15T13:40:53.163Z,98628.28
2019-01-15T13:43:48.037Z,98622.80
2019-01-15T13:46:37.214Z,98631.84
2019-01-15T13:49:30.703Z,98621.48
2019-01-15T13:52:19.819Z,98612.13
2019-01-15T13:55:19.224Z,98621.20
2019-01-15T13:58:21.726Z,98611.91
2019-01-15T14:01:10.799Z,98607.66
2019-01-15T14:04:13.288Z,98608.06
2019-01-15T14:07:02.137Z,98614.52
2019-01-15T14:09:52.541Z,98606.51
2019-01-15T14:12:51.856Z,98600.53
2019-01-15T14:15:48.812Z,98612.93
2019-01-15T14:18:40.079Z,98616.16
2019-01-15T14:21:36.434Z,98613.58
2019-01-15T14:24:35.969Z,98600.44
2019-01-15T14:27:35.088Z,98610.48
2019-01-15T14:30:29.212Z,98609.24
2019-01-15T14:33:31.419Z,98612.59
2019-01-15T14:36:20.586Z,98622.37
2019-01-15T14:39:09.560Z,98613.86
2019-01-15T14:42:02.560Z,98611.94
2019-01-15T14:45:01.814Z,98614.45
2019-01-15T14:47:49.092Z,98597.46
2019-01-15T14:50:31.486Z,98606.27
2019-01-15T14:53:22.607Z,98606.83
2019-01-15T14:56:05.746Z,98603.17
2019-01-15T14:58:54.885Z,98612.37
2019-01-15T15:01:40.597Z,98606.80
2019-01-15T15:04:43.093Z,98619.20
2019-01-15T15:07:33.326Z,98617.68
2019-01-15T15:10:24.576Z,98618.64
2019-01-15T15:13:14.862Z,98625.73
2019-01-15T15:16:05.292Z,98627.20
2019-01-15T15:18:52.994Z,98633.50
2019-01-15T15:21:52.529Z,98625.50
2019-01-15T15:24:53.735Z,98635.80
2019-01-15T15:27:43.039Z,98630.00
2019-01-15T15:30:34.136Z,98631.10
2019-01-15T15:33:33.563Z,98634.51
2019-01-15T15:36:31.298Z,98638.55
2019-01-15T15:39:32.510Z,98643.48
2019-01-15T15:42:23.299Z,98645.75
2019-01-15T15:45:13.601Z,98650.61
2019-01-15T15:48:20.025Z,98654.27
2019-01-15T15:51:25.499Z,98649.38
2019-01-15T15:54:07.270Z,98646.05
2019-01-15T15:56:57.469Z,98652.11
2019-01-15T15:59:46.347Z,98651.37
2019-01-15T16:02:35.365Z,98654.67
2019-01-15T16:05:19.634Z,98647.33
2019-01-15T16:08:12.617Z,98648.16
2019-01-15T16:10:55.079Z,98645.66
2019-01-15T16:13:53.198Z,98632.61
2019-01-15T16:16:42.317Z,98633.86
2019-01-15T16:19:38.576Z,98635.67
2019-01-15T16:22:31.848Z,98636.48
2019-01-15T16:25:14.029Z,98636.75
2019-01-15T16:28:02.863Z,98636.68
2019-01-15T16:30:45.345Z,98642.94
2019-01-15T16:33:38.812Z,98646.14
2019-01-15T16:36:32.024Z,98648.54
2019-01-15T16:39:20.873Z,98650.45
2019-01-15T16:42:23.412Z,98636.67
2019-01-15T16:45:31.983Z,98639.30
2019-01-15T16:48:21.654Z,98633.83
2019-01-15T16:51:21.156Z,98628.81
2019-01-15T16:54:17.458Z,98622.37
2019-01-15T16:57:06.790Z,98631.10
2019-01-15T16:59:53.422Z,98616.05
2019-01-15T17:02:46.813Z,98629.84
2019-01-15T17:05:49.155Z,98633.19
2019-01-15T17:08:44.074Z,98623.98
2019-01-15T17:11:35.978Z,98630.45
2019-01-15T17:14:27.871Z,98617.15
2019-01-15T17:17:17.059Z,98606.04
2019-01-15T17:20:04.272Z,98609.80
2019-01-15T17:22:54.353Z,98603.72
2019-01-15T17:25:44.543Z,98611.13
2019-01-15T17:28:33.416Z,98620.54
2019-01-15T17:31:22.065Z,98618.69
2019-01-15T17:34:15.297Z,98633.06
2019-01-15T17:37:04.433Z,98626.94
2019-01-15T17:40:00.759Z,98622.52
2019-01-15T17:42:49.929Z,98631.75
2019-01-15T17:45:33.213Z,98635.13
2019-01-15T17:48:26.579Z,98642.61
2019-01-15T17:51:20.459Z,98640.61
2019-01-15T17:54:22.313Z,98650.32
2019-01-15T17:57:15.815Z,98659.58
2019-01-15T18:00:18.376Z,98664.81
2019-01-15T18:03:11.007Z,98665.55
2019-01-15T18:06:19.497Z,98675.16
2019-01-15T18:09:15.245Z,98668.60
2019-01-15T18:12:04.306Z,98672.11
2019-01-15T18:14:52.659Z,98675.30
2019-01-15T18:17:41.859Z,98655.99
2019-01-15T18:20:32.292Z,98655.71
2019-01-15T18:23:37.864Z,98649.83
2019-01-15T18:26:30.833Z,98648.51
2019-01-15T18:29:12.325Z,98663.34
2019-01-15T18:32:05.582Z,98663.54
2019-01-15T18:35:05.079Z,98662.74
2019-01-15T18:37:55.395Z,98670.97
2019-01-15T18:40:44.313Z,98682.42
2019-01-15T18:43:33.261Z,98667.63
2019-01-15T18:46:22.818Z,98672.86
2019-01-15T18:49:25.308Z,98671.06
2019-01-15T18:52:14.150Z,98664.27
2019-01-15T18:55:13.486Z,98655.23
2019-01-15T18:58:10.014Z,98656.14
2019-01-15T19:01:03.267Z,98670.23
2019-01-15T19:04:06.236Z,98666.17
2019-01-15T19:06:59.486Z,98656.12
2019-01-15T19:09:56.217Z,98667.59
2019-01-15T19:12:45.314Z,98671.66
2019-01-15T19:15:40.178Z,98668.51
2019-01-15T19:18:29.347Z,98664.06
2019-01-15T19:21:25.532Z,98671.77
2019-01-15T19:24:15.799Z,98675.30
2019-01-15T19:27:01.372Z,98660.39
2019-01-15T19:29:50.269Z,98661.03
2019-01-15T19:32:49.764Z,98652.20
2019-01-15T19:35:38.804Z,98667.59
2019-01-15T19:38:35.220Z,98652.39
2019-01-15T19:41:24.247Z,98656.02
2019-01-15T19:44:16.187Z,98656.23
2019-01-15T19:47:10.715Z,98649.76
2019-01-15T19:50:07.104Z,98653.78
2019-01-15T19:53:04.247Z,98657.44
2019-01-15T19:55:57.404Z,98658.89
2019-01-15T19:58:54.052Z,98655.03
2019-01-15T20:01:43.002Z,98662.83
2019-01-15T20:04:32.021Z,98664.27
2019-01-15T20:07:34.349Z,98667.82
2019-01-15T20:10:39.140Z,98669.55
2019-01-15T20:13:29.459Z,98652.99
2019-01-15T20:16:11.304Z,98650.65
2019-01-15T20:19:01.707Z,98648.12
2019-01-15T20:21:54.678Z,98655.64
2019-01-15T20:24:45.175Z,98656.25
2019-01-15T20:27:34.055Z,98654.61
2019-01-15T20:30:29.754Z,98661.32
2019-01-15T20:33:25.838Z,98658.76
2019-01-15T20:36:34.373Z,98648.70
2019-01-15T20:39:23.753Z,98652.97
2019-01-15T20:42:20.080Z,98643.83
2019-01-15T20:45:08.965Z,98649.80
2019-01-15T20:47:54.418Z,98646.84
2019-01-15T20:50:43.579Z,98663.65
2019-01-15T20:53:39.886Z,98652.11
2019-01-15T20:56:38.440Z,98649.86
2019-01-15T20:59:24.963Z,98651.77
2019-01-15T21:02:21.046Z,98659.03
2019-01-15T21:05:29.804Z,98657.56
2019-01-15T21:08:20.052Z,98660.37
2019-01-15T21:11:08.976Z,98665.16
2019-01-15T21:14:02.218Z,98660.27
2019-01-15T21:16:51.240Z,98650.70
2019-01-15T21:19:44.225Z,98650.59
2019-01-15T21:22:27.442Z,98656.16
2019-01-15T21:25:23.761Z,98654.56
2019-01-15T21:28:13.971Z,98645.17
2019-01-15T21:31:02.278Z,98653.84
2019-01-15T21:33:47.782Z,98654.96
2019-01-15T21:36:30.995Z,98658.45
2019-01-15T21:39:15.560Z,98639.28
2019-01-15T21:41:59.604Z,98632.97
2019-01-15T21:44:44.279Z,98638.45
2019-01-15T21:47:40.317Z,98638.17
2019-01-15T21:50:29.197Z,98644.52
2019-01-15T21:53:28.518Z,98628.64
2019-01-15T21:56:21.904Z,98634.47
2019-01-15T21:59:18.167Z,98643.44
2019-01-15T22:02:23.788Z,98640.23
2019-01-15T22:05:16.783Z,98646.45
2019-01-15T22:08:05.701Z,98640.66
2019-01-15T22:10:55.949Z,98623.34
2019-01-15T22:13:49.291Z,98622.06
2019-01-15T22:16:38.108Z,98612.41
2019-01-15T22:19:30.688Z,98606.62
2019-01-15T22:22:19.931Z,98615.41
2019-01-15T22:25:16.113Z,98616.75
2019-01-15T22:28:05.201Z,98616.16
2019-01-15T22:30:54.435Z,98610.87
2019-01-15T22:33:42.972Z,98610.32
2019-01-15T22:36:27.831Z,98616.73
2019-01-15T22:39:14.043Z,98613.09
2019-01-15T22:42:10.530Z,98608.53
2019-01-15T22:44:52.847Z,98618.22
2019-01-15T22:47:43.080Z,98602.50
2019-01-15T22:50:38.784Z,98605.72
2019-01-15T22:53:47.525Z,98617.44
2019-01-15T22:56:32.382Z,98600.79
2019-01-15T22:59:21.563Z,98602.23
2019-01-15T23:02:14.721Z,98589.58
2019-01-15T23:05:14.326Z,98596.81
2019-01-15T23:08:07.762Z,98593.20
2019-01-15T23:10:56.695Z,98574.59
2019-01-15T23:13:40.694Z,98579.81
2019-01-15T23:16:27.695Z,98587.83
2019-01-15T23:19:16.912Z,98589.30
2019-01-15T23:22:05.135Z,98577.16
2019-01-15T23:24:54.366Z,98576.45
2019-01-15T23:27:53.657Z,98567.34
2019-01-15T23:30:39.688Z,98575.92
2019-01-15T23:33:33.966Z,98571.24
2019-01-15T23:36:27.341Z,98556.22
2019-01-15T23:39:17.642Z,98568.41
2019-01-15T23:42:03.735Z,98567.42
2019-01-15T23:44:47.970Z,98565.20
2019-01-15T23:47:36.951Z,98559.91
2019-01-15T23:50:31.067Z,98561.55
2019-01-15T23:53:20.004Z,98556.09
2019-01-15T23:56:10.206Z,98557.75
2019-01-15T23:58:54.036Z,98559.33
